CheckWX is a tool to help pilots better visualize weather data.  It is not intended as a substitute for an official pre-flight weather briefing.

20:49:51 UTC

EPPO TAF
Poznań-Ławica Airport
Poznań, Poland
TAF EPPO 161730Z 1618/1718 31006KT CAVOK

Jun-16@
18:00 UTC

Jun-16 @ 18:00 UTC

Jun-17@
18:00 UTC

Jun-17 @ 18:00 UTC

TAF EPPO 161730Z 1618/1718 31006KT CAVOK
Wind
  • 310° at 6 KTS
Conditions
No significant weather
Cloud Levels
  • No significant clouds